Terminal Aerodrome Forecast
Issued by NWS Charleston, WV

Current Version | Previous Version | Graphics & Text | Print | Product List | Glossary On
Versions: 1 2 3 4 5 6 7 8 9 10 11 12 13 14 15 16 17 18 19 20 21 22 23 24 25
062
FTUS41 KRLX 092341
TAFCRW
TAF
KCRW 092341Z 1000/1024 25009G16KT 5SM -SHSN OVC020
      TEMPO 1000/1003 2SM -SHSN OVC009
     FM100900 25009G14KT 5SM -SHSN OVC020
     FM101700 26012G18KT 4SM -SHSN BKN020
     FM102300 29008KT P6SM VCSH BKN025=

USA.gov is the U.S. government's official web portal to all federal, state and local government web resources and services.